Bay Islands (Utila), Honduras
Current Conditions -  °F | °C
As of 8:00 PM on Monday 20 Oct 2014 (Local Time) from MHLC Reporting Station
Broken Clouds Broken Clouds  
Wind Chill: 79°   Ceiling: 20000
Heat Index: 82°   Visibility: 6mi
Dew Point: 73°   Wind: 6mph
Humidity: 83%   Direction: 170°S
Pressure: 29.77"   Gusts: NA
Location:  16.1°N, 86.95°W
Report Text: MHLC 210200Z 17005KT 9999 SCT024CB BKN200 26/23 Q1008 A2977 RETS NOSIG
Loading
Personal Weather Stations






























Interactive Weather Map New forecast layout! Learn more

10-Day Weather Forecast

Advertisements
Track Severe Weather on mobile